sensor_id;sensor_type;location;lat;lon;timestamp;temperature;humidity
52731;DHT22;38624;53.242;6.974;2023-01-29T00:01:36;4.50;99.90
52731;DHT22;38624;53.242;6.974;2023-01-29T00:04:02;4.00;99.90
52731;DHT22;38624;53.242;6.974;2023-01-29T00:06:28;3.80;99.90
52731;DHT22;38624;53.242;6.974;2023-01-29T00:08:53;3.80;99.90
52731;DHT22;38624;53.242;6.974;2023-01-29T00:11:19;3.80;99.90
52731;DHT22;38624;53.242;6.974;2023-01-29T00:13:45;4.00;99.90
52731;DHT22;38624;53.242;6.974;2023-01-29T00:16:10;4.20;99.90
52731;DHT22;38624;53.242;6.974;2023-01-29T00:18:37;3.70;99.90
52731;DHT22;38624;53.242;6.974;2023-01-29T00:21:02;3.60;99.90
52731;DHT22;38624;53.242;6.974;2023-01-29T00:23:28;3.60;99.90
52731;DHT22;38624;53.242;6.974;2023-01-29T00:25:53;3.90;99.90
52731;DHT22;38624;53.242;6.974;2023-01-29T00:28:19;4.20;99.90
52731;DHT22;38624;53.242;6.974;2023-01-29T00:30:45;3.80;99.90
52731;DHT22;38624;53.242;6.974;2023-01-29T00:33:10;4.30;99.90
52731;DHT22;38624;53.242;6.974;2023-01-29T00:35:38;4.00;99.90
52731;DHT22;38624;53.242;6.974;2023-01-29T00:38:04;3.70;99.90
52731;DHT22;38624;53.242;6.974;2023-01-29T00:40:29;3.80;99.90
52731;DHT22;38624;53.242;6.974;2023-01-29T00:43:15;4.00;99.90
52731;DHT22;38624;53.242;6.974;2023-01-29T00:45:59;3.80;99.90
52731;DHT22;38624;53.242;6.974;2023-01-29T00:48:24;3.90;99.90
52731;DHT22;38624;53.242;6.974;2023-01-29T00:50:50;4.60;99.90
52731;DHT22;38624;53.242;6.974;2023-01-29T00:53:16;4.00;99.90
52731;DHT22;38624;53.242;6.974;2023-01-29T00:55:41;4.40;99.90
52731;DHT22;38624;53.242;6.974;2023-01-29T00:58:08;4.20;99.90
52731;DHT22;38624;53.242;6.974;2023-01-29T01:00:34;4.10;99.90
52731;DHT22;38624;53.242;6.974;2023-01-29T01:02:59;4.50;99.90
52731;DHT22;38624;53.242;6.974;2023-01-29T01:05:31;4.10;99.90
52731;DHT22;38624;53.242;6.974;2023-01-29T01:07:57;4.00;99.90
52731;DHT22;38624;53.242;6.974;2023-01-29T01:10:24;3.90;99.90
52731;DHT22;38624;53.242;6.974;2023-01-29T01:12:52;4.30;99.90
52731;DHT22;38624;53.242;6.974;2023-01-29T01:15:18;3.90;99.90
52731;DHT22;38624;53.242;6.974;2023-01-29T01:17:44;4.80;99.90
52731;DHT22;38624;53.242;6.974;2023-01-29T01:20:11;4.00;99.90
52731;DHT22;38624;53.242;6.974;2023-01-29T01:22:37;4.00;99.90
52731;DHT22;38624;53.242;6.974;2023-01-29T01:25:02;4.40;99.90
52731;DHT22;38624;53.242;6.974;2023-01-29T01:27:28;4.00;99.90
52731;DHT22;38624;53.242;6.974;2023-01-29T01:29:54;3.90;99.90
52731;DHT22;38624;53.242;6.974;2023-01-29T01:32:19;3.80;99.90
52731;DHT22;38624;53.242;6.974;2023-01-29T01:34:45;4.00;99.90
52731;DHT22;38624;53.242;6.974;2023-01-29T01:37:10;4.00;99.90
52731;DHT22;38624;53.242;6.974;2023-01-29T01:39:36;3.80;99.90
52731;DHT22;38624;53.242;6.974;2023-01-29T01:42:01;4.20;99.90
52731;DHT22;38624;53.242;6.974;2023-01-29T01:47:11;3.90;99.90
52731;DHT22;38624;53.242;6.974;2023-01-29T01:49:37;4.40;99.90
52731;DHT22;38624;53.242;6.974;2023-01-29T01:52:02;4.40;99.90
52731;DHT22;38624;53.242;6.974;2023-01-29T01:54:29;4.00;99.90
52731;DHT22;38624;53.242;6.974;2023-01-29T01:57:03;4.00;99.90
52731;DHT22;38624;53.242;6.974;2023-01-29T01:59:37;4.10;99.90
52731;DHT22;38624;53.242;6.974;2023-01-29T02:02:03;4.00;99.90
52731;DHT22;38624;53.242;6.974;2023-01-29T02:04:48;4.20;99.90
52731;DHT22;38624;53.242;6.974;2023-01-29T02:07:32;4.70;99.90
52731;DHT22;38624;53.242;6.974;2023-01-29T02:10:17;4.20;99.90
52731;DHT22;38624;53.242;6.974;2023-01-29T02:12:43;4.10;99.90
52731;DHT22;38624;53.242;6.974;2023-01-29T02:15:10;4.60;99.90
52731;DHT22;38624;53.242;6.974;2023-01-29T02:17:35;4.10;99.90
52731;DHT22;38624;53.242;6.974;2023-01-29T02:20:04;4.60;99.90
52731;DHT22;38624;53.242;6.974;2023-01-29T02:40:30;4.20;99.90
52731;DHT22;38624;53.242;6.974;2023-01-29T02:48:07;3.90;99.90
52731;DHT22;38624;53.242;6.974;2023-01-29T02:50:39;4.60;99.90
52731;DHT22;38624;53.242;6.974;2023-01-29T02:53:14;3.90;99.90
52731;DHT22;38624;53.242;6.974;2023-01-29T02:58:10;3.90;99.90
52731;DHT22;38624;53.242;6.974;2023-01-29T03:00:38;4.40;99.90
52731;DHT22;38624;53.242;6.974;2023-01-29T03:03:13;3.90;99.90
52731;DHT22;38624;53.242;6.974;2023-01-29T03:05:52;3.90;99.90
52731;DHT22;38624;53.242;6.974;2023-01-29T03:08:35;4.00;99.90
52731;DHT22;38624;53.242;6.974;2023-01-29T03:11:07;4.00;99.90
52731;DHT22;38624;53.242;6.974;2023-01-29T03:13:44;4.10;99.90
52731;DHT22;38624;53.242;6.974;2023-01-29T03:18:45;4.10;99.90
52731;DHT22;38624;53.242;6.974;2023-01-29T03:21:17;4.00;99.90
52731;DHT22;38624;53.242;6.974;2023-01-29T03:24:02;4.00;99.90
52731;DHT22;38624;53.242;6.974;2023-01-29T03:26:47;4.00;99.90
52731;DHT22;38624;53.242;6.974;2023-01-29T03:29:31;4.20;99.90
52731;DHT22;38624;53.242;6.974;2023-01-29T03:32:18;4.40;99.90
52731;DHT22;38624;53.242;6.974;2023-01-29T03:34:47;3.90;99.90
52731;DHT22;38624;53.242;6.974;2023-01-29T03:37:15;4.50;99.90
52731;DHT22;38624;53.242;6.974;2023-01-29T03:39:43;4.00;99.90
52731;DHT22;38624;53.242;6.974;2023-01-29T03:43:10;3.80;99.90
52731;DHT22;38624;53.242;6.974;2023-01-29T03:45:19;3.80;99.90
52731;DHT22;38624;53.242;6.974;2023-01-29T03:51:00;3.80;99.90
52731;DHT22;38624;53.242;6.974;2023-01-29T03:55:42;3.80;99.90
52731;DHT22;38624;53.242;6.974;2023-01-29T04:00:53;3.80;99.90
52731;DHT22;38624;53.242;6.974;2023-01-29T04:03:22;3.80;99.90
52731;DHT22;38624;53.242;6.974;2023-01-29T04:05:51;3.90;99.90
52731;DHT22;38624;53.242;6.974;2023-01-29T04:08:24;3.90;99.90
52731;DHT22;38624;53.242;6.974;2023-01-29T04:10:51;3.90;99.90
52731;DHT22;38624;53.242;6.974;2023-01-29T04:13:18;3.90;99.90
52731;DHT22;38624;53.242;6.974;2023-01-29T04:15:53;4.50;99.90
52731;DHT22;38624;53.242;6.974;2023-01-29T04:18:20;4.00;99.90
52731;DHT22;38624;53.242;6.974;2023-01-29T04:20:45;4.30;99.90
52731;DHT22;38624;53.242;6.974;2023-01-29T04:23:21;4.50;99.90
52731;DHT22;38624;53.242;6.974;2023-01-29T04:25:51;4.40;99.90
52731;DHT22;38624;53.242;6.974;2023-01-29T04:28:19;5.20;99.90
52731;DHT22;38624;53.242;6.974;2023-01-29T04:30:53;4.70;99.90
52731;DHT22;38624;53.242;6.974;2023-01-29T04:33:22;4.40;99.90
52731;DHT22;38624;53.242;6.974;2023-01-29T04:38:32;4.20;99.90
52731;DHT22;38624;53.242;6.974;2023-01-29T04:41:15;4.10;99.90
52731;DHT22;38624;53.242;6.974;2023-01-29T04:46:12;4.30;99.90
52731;DHT22;38624;53.242;6.974;2023-01-29T04:51:24;4.50;99.90
52731;DHT22;38624;53.242;6.974;2023-01-29T04:58:50;4.30;99.90
52731;DHT22;38624;53.242;6.974;2023-01-29T05:01:17;4.20;99.90
52731;DHT22;38624;53.242;6.974;2023-01-29T05:03:45;4.20;99.90
52731;DHT22;38624;53.242;6.974;2023-01-29T05:06:12;4.10;99.90
52731;DHT22;38624;53.242;6.974;2023-01-29T05:08:39;4.90;99.90
52731;DHT22;38624;53.242;6.974;2023-01-29T05:11:04;4.00;99.90
52731;DHT22;38624;53.242;6.974;2023-01-29T05:13:30;4.50;99.90
52731;DHT22;38624;53.242;6.974;2023-01-29T05:16:04;3.90;99.90
52731;DHT22;38624;53.242;6.974;2023-01-29T05:18:32;4.00;99.90
52731;DHT22;38624;53.242;6.974;2023-01-29T05:20:59;4.00;99.90
52731;DHT22;38624;53.242;6.974;2023-01-29T05:23:26;3.90;99.90
52731;DHT22;38624;53.242;6.974;2023-01-29T05:25:51;4.10;99.90
52731;DHT22;38624;53.242;6.974;2023-01-29T05:28:17;4.30;99.90
52731;DHT22;38624;53.242;6.974;2023-01-29T05:30:43;4.10;99.90
52731;DHT22;38624;53.242;6.974;2023-01-29T05:33:17;3.90;99.90
52731;DHT22;38624;53.242;6.974;2023-01-29T05:35:43;3.90;99.90
52731;DHT22;38624;53.242;6.974;2023-01-29T05:38:08;3.90;99.90
52731;DHT22;38624;53.242;6.974;2023-01-29T05:40:34;4.00;99.90
52731;DHT22;38624;53.242;6.974;2023-01-29T05:43:00;3.90;99.90
52731;DHT22;38624;53.242;6.974;2023-01-29T05:45:26;3.90;99.90
52731;DHT22;38624;53.242;6.974;2023-01-29T05:47:58;4.40;99.90
52731;DHT22;38624;53.242;6.974;2023-01-29T05:50:26;3.90;99.90
52731;DHT22;38624;53.242;6.974;2023-01-29T05:52:56;3.90;99.90
52731;DHT22;38624;53.242;6.974;2023-01-29T05:55:21;3.90;99.90
52731;DHT22;38624;53.242;6.974;2023-01-29T05:57:47;3.90;99.90
52731;DHT22;38624;53.242;6.974;2023-01-29T06:00:13;3.90;99.90
52731;DHT22;38624;53.242;6.974;2023-01-29T06:02:38;3.80;99.90
52731;DHT22;38624;53.242;6.974;2023-01-29T06:05:04;4.10;99.90
52731;DHT22;38624;53.242;6.974;2023-01-29T06:07:30;3.80;99.90
52731;DHT22;38624;53.242;6.974;2023-01-29T06:09:56;4.40;99.90
52731;DHT22;38624;53.242;6.974;2023-01-29T06:12:21;4.30;99.90
52731;DHT22;38624;53.242;6.974;2023-01-29T06:14:47;4.10;99.90
52731;DHT22;38624;53.242;6.974;2023-01-29T06:17:12;3.80;99.90
52731;DHT22;38624;53.242;6.974;2023-01-29T06:19:38;4.20;99.90
52731;DHT22;38624;53.242;6.974;2023-01-29T06:22:03;4.30;99.90
52731;DHT22;38624;53.242;6.974;2023-01-29T06:24:29;4.30;99.90
52731;DHT22;38624;53.242;6.974;2023-01-29T06:26:55;3.90;99.90
52731;DHT22;38624;53.242;6.974;2023-01-29T06:29:20;4.80;99.90
52731;DHT22;38624;53.242;6.974;2023-01-29T06:31:46;4.40;99.90
52731;DHT22;38624;53.242;6.974;2023-01-29T06:34:11;3.70;99.90
52731;DHT22;38624;53.242;6.974;2023-01-29T06:36:37;3.80;99.90
52731;DHT22;38624;53.242;6.974;2023-01-29T06:39:02;3.80;99.90
52731;DHT22;38624;53.242;6.974;2023-01-29T06:41:28;3.80;99.90
52731;DHT22;38624;53.242;6.974;2023-01-29T06:43:54;3.80;99.90
52731;DHT22;38624;53.242;6.974;2023-01-29T06:46:19;3.80;99.90
52731;DHT22;38624;53.242;6.974;2023-01-29T06:48:45;3.80;99.90
52731;DHT22;38624;53.242;6.974;2023-01-29T06:51:10;3.90;99.90
52731;DHT22;38624;53.242;6.974;2023-01-29T06:53:36;3.80;99.90
52731;DHT22;38624;53.242;6.974;2023-01-29T06:56:02;4.60;99.90
52731;DHT22;38624;53.242;6.974;2023-01-29T06:58:28;4.00;99.90
52731;DHT22;38624;53.242;6.974;2023-01-29T07:01:01;4.10;99.90
52731;DHT22;38624;53.242;6.974;2023-01-29T07:03:26;4.10;99.90
52731;DHT22;38624;53.242;6.974;2023-01-29T07:05:52;4.50;99.90
52731;DHT22;38624;53.242;6.974;2023-01-29T07:08:18;4.10;99.90
52731;DHT22;38624;53.242;6.974;2023-01-29T07:10:47;4.10;99.90
52731;DHT22;38624;53.242;6.974;2023-01-29T07:13:12;4.10;99.90
52731;DHT22;38624;53.242;6.974;2023-01-29T07:15:38;4.20;99.90
52731;DHT22;38624;53.242;6.974;2023-01-29T07:18:04;4.20;99.90
52731;DHT22;38624;53.242;6.974;2023-01-29T07:20:36;4.10;99.90
52731;DHT22;38624;53.242;6.974;2023-01-29T07:23:02;4.10;99.90
52731;DHT22;38624;53.242;6.974;2023-01-29T07:25:28;4.10;99.90
52731;DHT22;38624;53.242;6.974;2023-01-29T07:27:54;4.10;99.90
52731;DHT22;38624;53.242;6.974;2023-01-29T07:30:20;4.20;99.90
52731;DHT22;38624;53.242;6.974;2023-01-29T07:32:46;4.20;99.90
52731;DHT22;38624;53.242;6.974;2023-01-29T07:35:11;4.40;99.90
52731;DHT22;38624;53.242;6.974;2023-01-29T07:37:37;4.60;99.90
52731;DHT22;38624;53.242;6.974;2023-01-29T07:40:03;4.20;99.90
52731;DHT22;38624;53.242;6.974;2023-01-29T07:42:29;4.20;99.90
52731;DHT22;38624;53.242;6.974;2023-01-29T07:44:55;4.20;99.90
52731;DHT22;38624;53.242;6.974;2023-01-29T07:47:20;4.20;99.90
52731;DHT22;38624;53.242;6.974;2023-01-29T07:49:46;4.60;99.90
52731;DHT22;38624;53.242;6.974;2023-01-29T07:52:12;4.20;99.90
52731;DHT22;38624;53.242;6.974;2023-01-29T07:54:37;4.20;99.90
52731;DHT22;38624;53.242;6.974;2023-01-29T07:57:03;4.40;99.90
52731;DHT22;38624;53.242;6.974;2023-01-29T07:59:28;4.20;99.90
52731;DHT22;38624;53.242;6.974;2023-01-29T08:01:54;4.10;99.90
52731;DHT22;38624;53.242;6.974;2023-01-29T08:04:19;4.20;99.90
52731;DHT22;38624;53.242;6.974;2023-01-29T08:06:45;4.30;99.90
52731;DHT22;38624;53.242;6.974;2023-01-29T08:09:10;4.30;99.90
52731;DHT22;38624;53.242;6.974;2023-01-29T08:11:36;4.50;99.90
52731;DHT22;38624;53.242;6.974;2023-01-29T08:14:02;4.30;99.90
52731;DHT22;38624;53.242;6.974;2023-01-29T08:16:27;4.80;99.90
52731;DHT22;38624;53.242;6.974;2023-01-29T08:18:53;4.20;99.90
52731;DHT22;38624;53.242;6.974;2023-01-29T08:21:18;4.60;99.90
52731;DHT22;38624;53.242;6.974;2023-01-29T08:23:44;4.40;99.90
52731;DHT22;38624;53.242;6.974;2023-01-29T08:26:09;4.50;99.90
52731;DHT22;38624;53.242;6.974;2023-01-29T08:28:35;4.40;99.90
52731;DHT22;38624;53.242;6.974;2023-01-29T08:31:03;4.40;99.90
52731;DHT22;38624;53.242;6.974;2023-01-29T08:33:28;4.30;99.90
52731;DHT22;38624;53.242;6.974;2023-01-29T08:35:54;4.50;99.90
52731;DHT22;38624;53.242;6.974;2023-01-29T08:38:20;4.50;99.90
52731;DHT22;38624;53.242;6.974;2023-01-29T08:40:45;4.40;99.90
52731;DHT22;38624;53.242;6.974;2023-01-29T08:43:11;4.40;99.90
52731;DHT22;38624;53.242;6.974;2023-01-29T08:45:39;4.50;99.90
52731;DHT22;38624;53.242;6.974;2023-01-29T08:48:05;4.60;99.90
52731;DHT22;38624;53.242;6.974;2023-01-29T08:50:31;4.60;99.90
52731;DHT22;38624;53.242;6.974;2023-01-29T08:52:59;5.10;99.90
52731;DHT22;38624;53.242;6.974;2023-01-29T08:55:25;4.60;99.90
52731;DHT22;38624;53.242;6.974;2023-01-29T08:57:51;4.70;99.90
52731;DHT22;38624;53.242;6.974;2023-01-29T09:00:16;4.70;99.90
52731;DHT22;38624;53.242;6.974;2023-01-29T09:02:42;4.70;99.90
52731;DHT22;38624;53.242;6.974;2023-01-29T09:05:08;4.70;99.90
52731;DHT22;38624;53.242;6.974;2023-01-29T09:07:33;4.70;99.90
52731;DHT22;38624;53.242;6.974;2023-01-29T09:09:59;4.70;99.90
52731;DHT22;38624;53.242;6.974;2023-01-29T09:12:24;4.70;99.90
52731;DHT22;38624;53.242;6.974;2023-01-29T09:14:50;4.70;99.90
52731;DHT22;38624;53.242;6.974;2023-01-29T09:17:16;5.10;99.90
52731;DHT22;38624;53.242;6.974;2023-01-29T09:19:41;4.80;99.90
52731;DHT22;38624;53.242;6.974;2023-01-29T09:22:07;4.70;99.90
52731;DHT22;38624;53.242;6.974;2023-01-29T09:24:32;4.70;99.90
52731;DHT22;38624;53.242;6.974;2023-01-29T09:26:59;4.70;99.90
52731;DHT22;38624;53.242;6.974;2023-01-29T09:29:25;4.80;99.90
52731;DHT22;38624;53.242;6.974;2023-01-29T09:31:50;4.80;99.90
52731;DHT22;38624;53.242;6.974;2023-01-29T09:34:16;4.90;99.90
52731;DHT22;38624;53.242;6.974;2023-01-29T09:36:42;4.80;99.90
52731;DHT22;38624;53.242;6.974;2023-01-29T09:39:07;4.90;99.90
52731;DHT22;38624;53.242;6.974;2023-01-29T09:41:38;5.00;99.90
52731;DHT22;38624;53.242;6.974;2023-01-29T09:44:17;4.90;99.90
52731;DHT22;38624;53.242;6.974;2023-01-29T09:46:45;4.80;99.90
52731;DHT22;38624;53.242;6.974;2023-01-29T09:49:34;4.80;99.90
52731;DHT22;38624;53.242;6.974;2023-01-29T09:52:00;4.90;99.90
52731;DHT22;38624;53.242;6.974;2023-01-29T09:54:31;4.80;99.90
52731;DHT22;38624;53.242;6.974;2023-01-29T09:56:58;4.80;99.90
52731;DHT22;38624;53.242;6.974;2023-01-29T09:59:29;4.90;99.90
52731;DHT22;38624;53.242;6.974;2023-01-29T10:22:52;5.00;99.90
52731;DHT22;38624;53.242;6.974;2023-01-29T10:25:20;5.10;99.90
52731;DHT22;38624;53.242;6.974;2023-01-29T10:27:47;5.20;99.90
52731;DHT22;38624;53.242;6.974;2023-01-29T10:30:20;5.30;99.90
52731;DHT22;38624;53.242;6.974;2023-01-29T10:32:46;5.10;99.90
52731;DHT22;38624;53.242;6.974;2023-01-29T10:35:16;5.30;99.90
52731;DHT22;38624;53.242;6.974;2023-01-29T10:37:45;5.40;99.90
52731;DHT22;38624;53.242;6.974;2023-01-29T10:40:20;5.50;99.90
52731;DHT22;38624;53.242;6.974;2023-01-29T10:53:14;5.50;99.90
52731;DHT22;38624;53.242;6.974;2023-01-29T11:00:42;5.60;99.90
52731;DHT22;38624;53.242;6.974;2023-01-29T11:03:12;5.60;99.90
52731;DHT22;38624;53.242;6.974;2023-01-29T11:05:50;5.50;99.90
52731;DHT22;38624;53.242;6.974;2023-01-29T11:08:23;5.50;99.90
52731;DHT22;38624;53.242;6.974;2023-01-29T11:13:31;5.40;99.90
52731;DHT22;38624;53.242;6.974;2023-01-29T11:15:59;5.40;99.90
52731;DHT22;38624;53.242;6.974;2023-01-29T11:18:25;5.40;99.90
52731;DHT22;38624;53.242;6.974;2023-01-29T11:21:02;5.40;99.90
52731;DHT22;38624;53.242;6.974;2023-01-29T11:23:30;5.40;99.90
52731;DHT22;38624;53.242;6.974;2023-01-29T11:25:56;5.20;99.90
52731;DHT22;38624;53.242;6.974;2023-01-29T11:28:35;5.30;99.90
52731;DHT22;38624;53.242;6.974;2023-01-29T11:31:01;5.20;99.90
52731;DHT22;38624;53.242;6.974;2023-01-29T11:33:26;5.30;99.90
52731;DHT22;38624;53.242;6.974;2023-01-29T11:35:52;5.30;99.90
52731;DHT22;38624;53.242;6.974;2023-01-29T11:38:26;5.40;99.90
52731;DHT22;38624;53.242;6.974;2023-01-29T11:40:52;5.30;99.90
52731;DHT22;38624;53.242;6.974;2023-01-29T11:43:30;5.50;99.90
52731;DHT22;38624;53.242;6.974;2023-01-29T11:46:09;5.40;99.90
52731;DHT22;38624;53.242;6.974;2023-01-29T11:48:46;5.50;99.90
52731;DHT22;38624;53.242;6.974;2023-01-29T11:51:24;5.40;99.90
52731;DHT22;38624;53.242;6.974;2023-01-29T11:53:50;5.40;99.90
52731;DHT22;38624;53.242;6.974;2023-01-29T11:56:21;5.40;99.90
52731;DHT22;38624;53.242;6.974;2023-01-29T11:58:47;5.30;99.90
52731;DHT22;38624;53.242;6.974;2023-01-29T12:01:15;5.30;99.90
52731;DHT22;38624;53.242;6.974;2023-01-29T12:03:43;5.20;99.90
52731;DHT22;38624;53.242;6.974;2023-01-29T12:08:43;5.30;99.90
52731;DHT22;38624;53.242;6.974;2023-01-29T12:11:13;5.50;99.90
52731;DHT22;38624;53.242;6.974;2023-01-29T12:13:40;5.40;99.90
52731;DHT22;38624;53.242;6.974;2023-01-29T12:16:50;5.40;99.90
52731;DHT22;38624;53.242;6.974;2023-01-29T12:21:42;5.40;99.90
52731;DHT22;38624;53.242;6.974;2023-01-29T12:27:01;5.30;99.90
52731;DHT22;38624;53.242;6.974;2023-01-29T12:29:39;5.30;99.90
52731;DHT22;38624;53.242;6.974;2023-01-29T12:37:50;5.30;99.90
52731;DHT22;38624;53.242;6.974;2023-01-29T12:40:19;5.20;99.90
52731;DHT22;38624;53.242;6.974;2023-01-29T12:42:47;5.30;99.90
52731;DHT22;38624;53.242;6.974;2023-01-29T12:45:15;5.30;99.90
52731;DHT22;38624;53.242;6.974;2023-01-29T12:47:55;5.30;99.90
52731;DHT22;38624;53.242;6.974;2023-01-29T12:50:26;5.20;99.90
52731;DHT22;38624;53.242;6.974;2023-01-29T12:52:56;5.20;99.90
52731;DHT22;38624;53.242;6.974;2023-01-29T13:00:53;5.40;99.90
52731;DHT22;38624;53.242;6.974;2023-01-29T13:03:26;5.30;99.90
52731;DHT22;38624;53.242;6.974;2023-01-29T13:08:34;5.40;99.90
52731;DHT22;38624;53.242;6.974;2023-01-29T13:11:01;5.50;99.90
52731;DHT22;38624;53.242;6.974;2023-01-29T13:13:33;5.50;99.90
52731;DHT22;38624;53.242;6.974;2023-01-29T13:16:02;5.50;99.90
52731;DHT22;38624;53.242;6.974;2023-01-29T13:21:13;5.40;99.90
52731;DHT22;38624;53.242;6.974;2023-01-29T13:23:47;5.40;99.90
52731;DHT22;38624;53.242;6.974;2023-01-29T13:26:21;5.50;99.90
52731;DHT22;38624;53.242;6.974;2023-01-29T13:28:46;5.60;99.90
52731;DHT22;38624;53.242;6.974;2023-01-29T13:33:50;5.60;99.90
52731;DHT22;38624;53.242;6.974;2023-01-29T13:36:17;5.50;99.90
52731;DHT22;38624;53.242;6.974;2023-01-29T13:38:46;5.30;99.90
52731;DHT22;38624;53.242;6.974;2023-01-29T13:41:18;5.30;99.90
52731;DHT22;38624;53.242;6.974;2023-01-29T13:43:43;5.40;99.90
52731;DHT22;38624;53.242;6.974;2023-01-29T13:46:14;5.30;99.90
52731;DHT22;38624;53.242;6.974;2023-01-29T13:48:42;5.50;99.90
52731;DHT22;38624;53.242;6.974;2023-01-29T13:51:13;5.30;99.90
52731;DHT22;38624;53.242;6.974;2023-01-29T13:53:42;5.40;99.90
52731;DHT22;38624;53.242;6.974;2023-01-29T13:56:42;5.50;99.90
52731;DHT22;38624;53.242;6.974;2023-01-29T13:59:00;5.20;99.90
52731;DHT22;38624;53.242;6.974;2023-01-29T14:04:22;5.20;99.90
52731;DHT22;38624;53.242;6.974;2023-01-29T14:06:58;5.10;99.90
52731;DHT22;38624;53.242;6.974;2023-01-29T14:09:59;5.10;99.90
52731;DHT22;38624;53.242;6.974;2023-01-29T14:17:16;5.00;99.90
52731;DHT22;38624;53.242;6.974;2023-01-29T14:19:48;5.00;99.90
52731;DHT22;38624;53.242;6.974;2023-01-29T14:22:21;5.10;99.90
52731;DHT22;38624;53.242;6.974;2023-01-29T14:24:47;5.00;99.90
52731;DHT22;38624;53.242;6.974;2023-01-29T14:27:18;5.10;99.90
52731;DHT22;38624;53.242;6.974;2023-01-29T14:29:44;4.90;99.90
52731;DHT22;38624;53.242;6.974;2023-01-29T14:32:20;4.90;99.90
52731;DHT22;38624;53.242;6.974;2023-01-29T14:34:47;4.90;99.90
52731;DHT22;38624;53.242;6.974;2023-01-29T14:42:42;4.80;99.90
52731;DHT22;38624;53.242;6.974;2023-01-29T14:45:06;4.80;99.90
52731;DHT22;38624;53.242;6.974;2023-01-29T14:50:02;4.80;99.90
52731;DHT22;38624;53.242;6.974;2023-01-29T14:52:32;4.80;99.90
52731;DHT22;38624;53.242;6.974;2023-01-29T14:55:00;4.80;99.90
52731;DHT22;38624;53.242;6.974;2023-01-29T14:57:27;5.30;99.90
52731;DHT22;38624;53.242;6.974;2023-01-29T14:59:55;4.70;99.90
52731;DHT22;38624;53.242;6.974;2023-01-29T15:02:26;4.80;99.90
52731;DHT22;38624;53.242;6.974;2023-01-29T15:04:57;4.70;99.90
52731;DHT22;38624;53.242;6.974;2023-01-29T15:09:54;4.90;99.90
52731;DHT22;38624;53.242;6.974;2023-01-29T15:12:30;4.80;99.90
52731;DHT22;38624;53.242;6.974;2023-01-29T15:15:17;4.70;99.90
52731;DHT22;38624;53.242;6.974;2023-01-29T15:22:54;4.80;99.90
52731;DHT22;38624;53.242;6.974;2023-01-29T15:25:20;4.80;99.90
52731;DHT22;38624;53.242;6.974;2023-01-29T15:27:46;4.80;99.90
52731;DHT22;38624;53.242;6.974;2023-01-29T15:30:24;5.00;99.90
52731;DHT22;38624;53.242;6.974;2023-01-29T15:32:53;4.70;99.90
52731;DHT22;38624;53.242;6.974;2023-01-29T15:37:57;4.70;99.90
52731;DHT22;38624;53.242;6.974;2023-01-29T15:40:23;4.80;99.90
52731;DHT22;38624;53.242;6.974;2023-01-29T15:42:49;4.70;99.90
52731;DHT22;38624;53.242;6.974;2023-01-29T15:47:46;4.60;99.90
52731;DHT22;38624;53.242;6.974;2023-01-29T15:50:12;4.60;99.90
52731;DHT22;38624;53.242;6.974;2023-01-29T15:52:38;4.60;99.90
52731;DHT22;38624;53.242;6.974;2023-01-29T15:55:04;4.50;99.90
52731;DHT22;38624;53.242;6.974;2023-01-29T15:57:35;4.60;99.90
52731;DHT22;38624;53.242;6.974;2023-01-29T16:00:02;4.60;99.90
52731;DHT22;38624;53.242;6.974;2023-01-29T16:02:39;4.60;99.90
52731;DHT22;38624;53.242;6.974;2023-01-29T16:05:12;4.50;99.90
52731;DHT22;38624;53.242;6.974;2023-01-29T16:07:38;4.60;99.90
52731;DHT22;38624;53.242;6.974;2023-01-29T16:10:05;4.50;99.90
52731;DHT22;38624;53.242;6.974;2023-01-29T16:12:31;4.50;99.90
52731;DHT22;38624;53.242;6.974;2023-01-29T16:14:57;5.00;99.90
52731;DHT22;38624;53.242;6.974;2023-01-29T16:17:31;4.70;99.90
52731;DHT22;38624;53.242;6.974;2023-01-29T16:20:00;4.70;99.90
52731;DHT22;38624;53.242;6.974;2023-01-29T16:22:30;4.70;99.90
52731;DHT22;38624;53.242;6.974;2023-01-29T16:25:06;4.60;99.90
52731;DHT22;38624;53.242;6.974;2023-01-29T16:27:33;4.60;99.90
52731;DHT22;38624;53.242;6.974;2023-01-29T16:29:59;4.60;99.90
52731;DHT22;38624;53.242;6.974;2023-01-29T16:32:27;4.70;99.90
52731;DHT22;38624;53.242;6.974;2023-01-29T16:34:54;4.60;99.90
52731;DHT22;38624;53.242;6.974;2023-01-29T16:37:21;4.80;99.90
52731;DHT22;38624;53.242;6.974;2023-01-29T16:39:48;4.70;99.90
52731;DHT22;38624;53.242;6.974;2023-01-29T16:44:45;4.80;99.90
52731;DHT22;38624;53.242;6.974;2023-01-29T16:47:30;4.90;99.90
52731;DHT22;38624;53.242;6.974;2023-01-29T16:50:42;4.80;99.90
52731;DHT22;38624;53.242;6.974;2023-01-29T16:52:53;4.80;99.90
52731;DHT22;38624;53.242;6.974;2023-01-29T16:55:20;4.90;99.90
52731;DHT22;38624;53.242;6.974;2023-01-29T16:57:48;4.90;99.90
52731;DHT22;38624;53.242;6.974;2023-01-29T17:00:21;5.00;99.90
52731;DHT22;38624;53.242;6.974;2023-01-29T17:02:49;4.90;99.90
52731;DHT22;38624;53.242;6.974;2023-01-29T17:05:20;4.90;99.90
52731;DHT22;38624;53.242;6.974;2023-01-29T17:07:46;4.90;99.90
52731;DHT22;38624;53.242;6.974;2023-01-29T17:10:15;4.80;99.90
52731;DHT22;38624;53.242;6.974;2023-01-29T17:12:41;5.10;99.90
52731;DHT22;38624;53.242;6.974;2023-01-29T17:17:56;4.90;99.90
52731;DHT22;38624;53.242;6.974;2023-01-29T17:20:22;4.90;99.90
52731;DHT22;38624;53.242;6.974;2023-01-29T17:22:47;4.90;99.90
52731;DHT22;38624;53.242;6.974;2023-01-29T17:25:13;4.80;99.90
52731;DHT22;38624;53.242;6.974;2023-01-29T17:27:39;4.80;99.90
52731;DHT22;38624;53.242;6.974;2023-01-29T17:30:05;4.80;99.90
52731;DHT22;38624;53.242;6.974;2023-01-29T17:32:31;4.80;99.90
52731;DHT22;38624;53.242;6.974;2023-01-29T17:34:56;4.80;99.90
52731;DHT22;38624;53.242;6.974;2023-01-29T17:37:23;5.70;99.90
52731;DHT22;38624;53.242;6.974;2023-01-29T17:39:48;5.30;99.90
52731;DHT22;38624;53.242;6.974;2023-01-29T17:42:15;4.80;99.90
52731;DHT22;38624;53.242;6.974;2023-01-29T17:44:41;4.70;99.90
52731;DHT22;38624;53.242;6.974;2023-01-29T17:47:13;4.70;99.90
52731;DHT22;38624;53.242;6.974;2023-01-29T17:49:42;4.80;99.90
52731;DHT22;38624;53.242;6.974;2023-01-29T17:52:07;4.80;99.90
52731;DHT22;38624;53.242;6.974;2023-01-29T17:54:33;4.80;99.90
52731;DHT22;38624;53.242;6.974;2023-01-29T17:56:59;4.70;99.90
52731;DHT22;38624;53.242;6.974;2023-01-29T17:59:27;4.70;99.90
52731;DHT22;38624;53.242;6.974;2023-01-29T18:01:53;4.70;99.90
52731;DHT22;38624;53.242;6.974;2023-01-29T18:04:19;5.10;99.90
52731;DHT22;38624;53.242;6.974;2023-01-29T18:06:46;4.70;99.90
52731;DHT22;38624;53.242;6.974;2023-01-29T18:09:12;4.60;99.90
52731;DHT22;38624;53.242;6.974;2023-01-29T18:11:39;4.80;99.90
52731;DHT22;38624;53.242;6.974;2023-01-29T18:14:05;4.70;99.90
52731;DHT22;38624;53.242;6.974;2023-01-29T18:16:30;4.80;99.90
52731;DHT22;38624;53.242;6.974;2023-01-29T18:19:23;4.70;99.90
52731;DHT22;38624;53.242;6.974;2023-01-29T18:21:47;4.80;99.90
52731;DHT22;38624;53.242;6.974;2023-01-29T18:24:13;4.80;99.90
52731;DHT22;38624;53.242;6.974;2023-01-29T18:26:38;5.30;99.90